Time;durP1;ratioP1;P1;durP2;ratioP2;P2;SDS_P1;SDS_P2;PMS_P1;PMS_P2;Temp;Humidity;BMP_temperature;BMP_pressure;BME280_temperature;BME280_humidity;BME280_pressure;Samples;Min_cycle;Max_cycle;Signal;HPM_P1;HPM_P2
2024/01/13 00:00:13;;;;;;;;;;;;;;;6.30;57.19;101839.31;4943688;28;6861;-75
2024/01/13 00:02:39;;;;;;;;;;;;;;;6.31;57.43;101830.94;4958061;28;6847;-75
2024/01/13 00:05:05;;;;;;;;;;;;;;;6.31;57.12;101825.84;4958221;28;6976;-75
2024/01/13 00:07:31;;;;;;;;;;;;;;;6.30;57.49;101824.03;4933063;28;7051;-75
2024/01/13 00:09:57;;;;;;;;;;;;;;;6.29;57.19;101824.81;4942483;28;7858;-75
2024/01/13 00:12:22;;;;;;;;;;;;;;;6.31;57.14;101825.84;4958004;28;6776;-75
2024/01/13 00:14:48;;;;;;;;;;;;;;;6.32;57.41;101817.44;4945452;28;6962;-75
2024/01/13 00:17:14;;;;;;;;;;;;;;;6.33;56.98;101811.56;4941974;28;6945;-75
2024/01/13 00:19:39;;;;;;;;;;;;;;;6.32;57.48;101795.38;4961609;28;6771;-74
2024/01/13 00:22:05;;;;;;;;;;;;;;;6.34;57.36;101795.53;4960454;28;6788;-75
2024/01/13 00:24:30;;;;;;;;;;;;;;;6.36;57.46;101796.56;4956484;28;6975;-75
2024/01/13 00:26:56;;;;;;;;;;;;;;;6.36;57.38;101791.47;4945846;28;7043;-75
2024/01/13 00:29:22;;;;;;;;;;;;;;;6.38;57.78;101792.50;4957134;28;7240;-75
2024/01/13 00:31:47;;;;;;;;;;;;;;;6.37;57.26;101777.97;4943427;28;7227;-75
2024/01/13 00:34:13;;;;;;;;;;;;;;;6.38;57.21;101783.19;4942720;28;6768;-75
2024/01/13 00:36:38;;;;;;;;;;;;;;;6.38;57.39;101779.78;4952264;28;6783;-75
2024/01/13 00:39:05;;;;;;;;;;;;;;;6.38;56.98;101775.56;4958062;28;6852;-75
2024/01/13 00:41:31;;;;;;;;;;;;;;;6.39;57.83;101766.28;4943175;28;6989;-75
2024/01/13 00:43:56;;;;;;;;;;;;;;;6.38;57.49;101767.03;4940031;28;7071;-75
2024/01/13 00:46:22;;;;;;;;;;;;;;;6.38;56.92;101764.50;4960880;28;6939;-75
2024/01/13 00:48:48;;;;;;;;;;;;;;;6.39;57.09;101762.06;4930496;28;7233;-75
2024/01/13 00:51:14;;;;;;;;;;;;;;;6.40;57.68;101757.88;4957882;28;6776;-75
2024/01/13 00:53:40;;;;;;;;;;;;;;;6.41;56.80;101759.66;4940211;28;7075;-75
2024/01/13 00:56:09;;;;;;;;;;;;;;;6.41;57.64;101759.66;4960630;28;6799;-75
2024/01/13 00:58:36;;;;;;;;;;;;;;;6.41;57.66;101751.09;4956096;28;6808;-75
2024/01/13 01:01:03;;;;;;;;;;;;;;;6.41;57.44;101758.75;4941208;28;7163;-75
2024/01/13 01:03:29;;;;;;;;;;;;;;;6.41;57.01;101762.19;4958792;28;6789;-75
2024/01/13 01:05:55;;;;;;;;;;;;;;;6.43;56.82;101758.13;4945877;28;6792;-75
2024/01/13 01:08:21;;;;;;;;;;;;;;;6.43;57.12;101755.59;4938699;28;6796;-75
2024/01/13 01:10:47;;;;;;;;;;;;;;;6.44;57.61;101754.81;4942105;28;6792;-75
2024/01/13 01:13:13;;;;;;;;;;;;;;;6.45;56.74;101756.59;4941546;28;6788;-75
2024/01/13 01:15:39;;;;;;;;;;;;;;;6.45;56.82;101751.50;4952875;28;6934;-75
2024/01/13 01:18:04;;;;;;;;;;;;;;;6.44;57.45;101749.72;4958218;28;6777;-75
2024/01/13 01:20:30;;;;;;;;;;;;;;;6.44;56.88;101744.63;4943582;28;6953;-75
2024/01/13 01:22:56;;;;;;;;;;;;;;;6.45;57.46;101745.53;4954359;28;7310;-75
2024/01/13 01:25:21;;;;;;;;;;;;;;;6.42;56.66;101746.16;4956954;28;7140;-75
2024/01/13 01:27:47;;;;;;;;;;;;;;;6.42;57.43;101741.06;4944254;28;7261;-75
2024/01/13 01:30:13;;;;;;;;;;;;;;;6.42;57.70;101745.25;4957129;28;6896;-75
2024/01/13 01:32:39;;;;;;;;;;;;;;;6.41;56.92;101739.28;4925522;28;7213;-75
2024/01/13 01:35:06;;;;;;;;;;;;;;;6.43;57.62;101737.75;4959457;28;6972;-75
2024/01/13 01:37:33;;;;;;;;;;;;;;;6.46;56.81;101738.00;4955673;28;7202;-75
2024/01/13 01:39:59;;;;;;;;;;;;;;;6.46;57.36;101730.38;4960290;28;6855;-75
2024/01/13 01:42:25;;;;;;;;;;;;;;;6.47;57.07;101744.91;4959699;28;6988;-75
2024/01/13 01:44:50;;;;;;;;;;;;;;;6.46;56.88;101743.09;4952618;28;6916;-73
2024/01/13 01:47:19;;;;;;;;;;;;;;;6.47;56.60;101744.00;4966276;28;6933;-73
2024/01/13 01:49:46;;;;;;;;;;;;;;;6.45;56.91;101741.31;4954318;28;7175;-73
2024/01/13 01:52:14;;;;;;;;;;;;;;;6.48;57.16;101738.16;4957498;28;8479;-73
2024/01/13 01:54:40;;;;;;;;;;;;;;;6.51;56.88;101731.66;4965490;28;6792;-72
2024/01/13 01:57:08;;;;;;;;;;;;;;;6.54;57.43;101720.84;4962547;28;6791;-74
2024/01/13 01:59:34;;;;;;;;;;;;;;;6.56;56.64;101726.06;4954813;28;6800;-72
2024/01/13 02:02:00;;;;;;;;;;;;;;;6.56;56.56;101720.97;4964924;28;6819;-74
2024/01/13 02:04:26;;;;;;;;;;;;;;;6.55;56.69;101722.63;4962164;28;7243;-73
2024/01/13 02:06:52;;;;;;;;;;;;;;;6.56;56.53;101720.97;4966437;28;6820;-72
2024/01/13 02:09:19;;;;;;;;;;;;;;;6.56;57.25;101718.41;4943235;28;6954;-74
2024/01/13 02:11:45;;;;;;;;;;;;;;;6.55;56.88;101714.09;4954570;28;7180;-74
2024/01/13 02:14:11;;;;;;;;;;;;;;;6.55;56.40;101711.53;4949360;28;7017;-73
2024/01/13 02:16:37;;;;;;;;;;;;;;;6.56;56.77;101714.22;4964748;28;7197;-73
2024/01/13 02:19:02;;;;;;;;;;;;;;;6.56;57.00;101708.22;4959667;28;6939;-72
2024/01/13 02:21:28;;;;;;;;;;;;;;;6.56;56.75;101713.31;4953035;28;8802;-73
2024/01/13 02:23:54;;;;;;;;;;;;;;;6.57;56.83;101715.09;4936130;28;7237;-74
2024/01/13 02:26:20;;;;;;;;;;;;;;;6.59;57.17;101718.69;4969473;28;6931;-72
2024/01/13 02:28:45;;;;;;;;;;;;;;;6.61;56.35;101714.63;4954329;28;6784;-74
2024/01/13 02:31:12;;;;;;;;;;;;;;;6.62;56.71;101717.31;4971329;28;6852;-73
2024/01/13 02:33:37;;;;;;;;;;;;;;;6.62;56.98;101704.56;4969230;28;6959;-73
2024/01/13 02:36:04;;;;;;;;;;;;;;;6.64;56.61;101707.22;4961839;28;6788;-74
2024/01/13 02:38:29;;;;;;;;;;;;;;;6.64;56.59;101707.22;4964577;28;7479;-72
2024/01/13 02:40:55;;;;;;;;;;;;;;;6.63;56.25;101698.72;4970443;28;6772;-73
2024/01/13 02:43:20;;;;;;;;;;;;;;;6.64;56.92;101694.50;4949886;28;6760;-71
2024/01/13 02:45:46;;;;;;;;;;;;;;;6.66;55.99;101696.41;4967656;28;6954;-72
2024/01/13 02:48:18;;;;;;;;;;;;;;;6.66;56.35;101695.50;4952574;28;6923;-72
2024/01/13 02:51:01;;;;;;;;;;;;;;;6.66;56.85;101695.50;4965204;28;7392;-73
2024/01/13 02:53:28;;;;;;;;;;;;;;;6.66;56.58;101691.31;4952426;28;6994;-76
2024/01/13 02:55:53;;;;;;;;;;;;;;;6.66;56.63;101686.22;4951027;28;7252;-77
2024/01/13 02:58:19;;;;;;;;;;;;;;;6.67;55.99;101687.13;4976461;28;7572;-75
2024/01/13 03:00:45;;;;;;;;;;;;;;;6.64;56.06;101682.66;4964263;28;6788;-76
2024/01/13 03:03:10;;;;;;;;;;;;;;;6.63;56.12;101685.97;4951465;28;6788;-76
2024/01/13 03:05:36;;;;;;;;;;;;;;;6.61;56.45;101673.84;4971434;28;6772;-77
2024/01/13 03:08:02;;;;;;;;;;;;;;;6.61;56.05;101676.41;4958714;28;7278;-77
2024/01/13 03:10:31;;;;;;;;;;;;;;;6.60;56.37;101679.72;4970056;28;7079;-75
2024/01/13 03:12:56;;;;;;;;;;;;;;;6.61;55.97;101672.19;4952642;28;7291;-76
2024/01/13 03:15:22;;;;;;;;;;;;;;;6.62;56.05;101668.91;4953400;28;6764;-74
2024/01/13 03:17:48;;;;;;;;;;;;;;;6.64;56.58;101671.56;4969981;28;7001;-76
2024/01/13 03:20:13;;;;;;;;;;;;;;;6.63;56.51;101662.13;4966533;28;6840;-76
2024/01/13 03:22:39;;;;;;;;;;;;;;;6.65;56.13;101668.25;4956057;28;7574;-76
2024/01/13 03:25:06;;;;;;;;;;;;;;;6.64;56.61;101654.63;4965607;28;7472;-76
2024/01/13 03:27:31;;;;;;;;;;;;;;;6.64;56.24;101651.19;4972298;28;6922;-75
2024/01/13 03:29:57;;;;;;;;;;;;;;;6.65;55.83;101653.88;4967194;28;6772;-76
2024/01/13 03:32:22;;;;;;;;;;;;;;;6.64;56.69;101641.00;4951261;28;6954;-74
2024/01/13 03:34:48;;;;;;;;;;;;;;;6.63;56.04;101639.22;4965574;28;7189;-75
2024/01/13 03:37:14;;;;;;;;;;;;;;;6.61;55.75;101635.66;4970359;28;7035;-75
2024/01/13 03:39:40;;;;;;;;;;;;;;;6.59;56.56;101627.00;4955121;28;7066;-75
2024/01/13 03:42:06;;;;;;;;;;;;;;;6.56;56.57;101627.63;4964200;28;6784;-76
2024/01/13 03:44:32;;;;;;;;;;;;;;;6.56;56.16;101619.06;4967182;28;7298;-76
2024/01/13 03:46:57;;;;;;;;;;;;;;;6.56;56.49;101616.53;4958014;28;6936;-77
2024/01/13 03:49:23;;;;;;;;;;;;;;;6.55;56.06;101610.56;4954069;28;6756;-75
2024/01/13 03:51:49;;;;;;;;;;;;;;;6.55;56.86;101614.75;4967360;28;7341;-76
2024/01/13 03:54:14;;;;;;;;;;;;;;;6.53;56.07;101610.41;4969457;28;6804;-76
2024/01/13 03:56:40;;;;;;;;;;;;;;;6.56;56.83;101613.97;4967651;28;6784;-77
2024/01/13 03:59:06;;;;;;;;;;;;;;;6.56;56.06;101608.88;4970575;28;6784;-76
2024/01/13 04:01:32;;;;;;;;;;;;;;;6.58;55.89;101607.38;4968212;28;6788;-75
2024/01/13 04:03:58;;;;;;;;;;;;;;;6.57;56.68;101610.66;4950475;28;7178;-76
2024/01/13 04:06:23;;;;;;;;;;;;;;;6.57;56.82;101610.66;4959136;28;7017;-75
2024/01/13 04:08:49;;;;;;;;;;;;;;;6.56;56.41;101607.25;4948702;28;6840;-76
2024/01/13 04:11:14;;;;;;;;;;;;;;;6.59;56.59;101609.16;4948053;28;7030;-75
2024/01/13 04:13:40;;;;;;;;;;;;;;;6.59;56.50;101604.94;4966650;28;6748;-77
2024/01/13 04:16:07;;;;;;;;;;;;;;;6.58;56.59;101595.50;4965108;28;6852;-74
2024/01/13 04:18:33;;;;;;;;;;;;;;;6.56;56.62;101591.03;4952634;28;8534;-75
2024/01/13 04:20:59;;;;;;;;;;;;;;;6.53;56.23;101587.50;4952853;28;7404;-76
2024/01/13 04:23:24;;;;;;;;;;;;;;;6.51;56.45;101589.03;4966811;28;6788;-76
2024/01/13 04:25:50;;;;;;;;;;;;;;;6.49;56.30;101593.09;4940346;28;6926;-76
2024/01/13 04:28:15;;;;;;;;;;;;;;;6.47;56.44;101587.00;4965076;28;6855;-76
2024/01/13 04:30:42;;;;;;;;;;;;;;;6.46;56.13;101590.28;4965422;28;6942;-76
2024/01/13 04:33:07;;;;;;;;;;;;;;;6.46;56.77;101591.94;4934955;28;6987;-76
2024/01/13 04:35:33;;;;;;;;;;;;;;;6.46;56.89;101584.31;4947795;28;6772;-75
2024/01/13 04:37:59;;;;;;;;;;;;;;;6.46;56.91;101584.31;4964509;28;6772;-77
2024/01/13 04:40:25;;;;;;;;;;;;;;;6.46;56.73;101572.44;4950620;28;8676;-76
2024/01/13 04:42:50;;;;;;;;;;;;;;;6.47;56.77;101575.91;4966199;28;6957;-76
2024/01/13 04:45:16;;;;;;;;;;;;;;;6.47;56.62;101576.81;4962024;28;6991;-76
2024/01/13 04:47:42;;;;;;;;;;;;;;;6.47;56.31;101571.72;4961936;28;6760;-75
2024/01/13 04:50:08;;;;;;;;;;;;;;;6.47;56.49;101558.97;4960176;28;6929;-76
2024/01/13 04:52:33;;;;;;;;;;;;;;;6.48;56.70;101560.75;4961935;28;7199;-76
2024/01/13 04:54:59;;;;;;;;;;;;;;;6.48;56.15;101557.31;4954399;28;6953;-77
2024/01/13 04:57:24;;;;;;;;;;;;;;;6.50;56.81;101546.50;4966847;28;6991;-75
2024/01/13 04:59:50;;;;;;;;;;;;;;;6.55;56.14;101549.41;4953977;28;7160;-77
2024/01/13 05:02:16;;;;;;;;;;;;;;;6.57;56.32;101546.97;4961937;28;6772;-77
2024/01/13 05:04:41;;;;;;;;;;;;;;;6.57;56.42;101549.53;4948308;28;6772;-77
2024/01/13 05:07:10;;;;;;;;;;;;;;;6.58;56.18;101546.25;4929671;28;7229;-76
2024/01/13 05:09:35;;;;;;;;;;;;;;;6.60;56.26;101547.25;4965583;28;7014;-76
2024/01/13 05:12:01;;;;;;;;;;;;;;;6.63;56.13;101542.41;4945232;28;6983;-75
2024/01/13 05:14:27;;;;;;;;;;;;;;;6.64;56.30;101544.19;4960511;28;6788;-77
2024/01/13 05:16:53;;;;;;;;;;;;;;;6.67;55.91;101539.34;4962483;28;7013;-77
2024/01/13 05:19:20;;;;;;;;;;;;;;;6.69;56.51;101536.91;4967277;28;6765;-75
2024/01/13 05:21:45;;;;;;;;;;;;;;;6.70;56.67;101546.34;4965159;28;6788;-76
2024/01/13 05:24:12;;;;;;;;;;;;;;;6.71;56.29;101546.47;4947458;28;7227;-76
2024/01/13 05:26:38;;;;;;;;;;;;;;;6.72;56.33;101543.16;4954353;28;7064;-76
2024/01/13 05:29:03;;;;;;;;;;;;;;;6.73;55.82;101537.28;4950947;28;7193;-77
2024/01/13 05:31:29;;;;;;;;;;;;;;;6.73;55.71;101532.19;4948142;28;7002;-74
2024/01/13 05:33:55;;;;;;;;;;;;;;;6.74;55.73;101526.31;4962253;28;6756;-76
2024/01/13 05:36:21;;;;;;;;;;;;;;;6.74;55.72;101520.34;4962826;28;6788;-76
2024/01/13 05:38:47;;;;;;;;;;;;;;;6.76;56.48;101519.72;4954325;28;6991;-76
2024/01/13 05:41:12;;;;;;;;;;;;;;;6.76;55.67;101513.72;4950322;28;7222;-76
2024/01/13 05:43:38;;;;;;;;;;;;;;;6.76;56.48;101512.06;4944142;28;6983;-75
2024/01/13 05:46:04;;;;;;;;;;;;;;;6.78;56.04;101508.00;4959241;28;6948;-77
2024/01/13 05:48:29;;;;;;;;;;;;;;;6.78;55.86;101515.63;4961923;28;6836;-76
2024/01/13 05:50:55;;;;;;;;;;;;;;;6.80;56.22;101523.38;4963295;28;6832;-76
2024/01/13 05:53:20;;;;;;;;;;;;;;;6.79;55.63;101522.50;4973114;28;7147;-74
2024/01/13 05:55:46;;;;;;;;;;;;;;;6.82;55.52;101524.44;4964549;28;7190;-76
2024/01/13 05:58:12;;;;;;;;;;;;;;;6.84;55.60;101512.69;4975452;28;6776;-76
2024/01/13 06:00:37;;;;;;;;;;;;;;;6.87;55.78;101523.13;4953925;28;7605;-75
2024/01/13 06:03:03;;;;;;;;;;;;;;;6.88;55.23;101529.13;4938343;28;8466;-77
2024/01/13 06:05:31;;;;;;;;;;;;;;;6.87;55.03;101528.22;4972148;28;6941;-74
2024/01/13 06:07:57;;;;;;;;;;;;;;;6.89;54.92;101525.81;4968343;28;6792;-75
2024/01/13 06:10:23;;;;;;;;;;;;;;;6.89;54.81;101518.16;4948726;28;6796;-77
2024/01/13 06:12:49;;;;;;;;;;;;;;;6.90;55.83;101517.38;4947606;28;6938;-75
2024/01/13 06:15:15;;;;;;;;;;;;;;;6.89;54.87;101520.72;4933065;28;7846;-75
2024/01/13 06:17:41;;;;;;;;;;;;;;;6.88;55.46;101513.84;4964638;28;7832;-77
2024/01/13 06:20:10;;;;;;;;;;;;;;;6.89;55.65;101518.16;4965911;28;6780;-77
2024/01/13 06:22:36;;;;;;;;;;;;;;;6.90;54.79;101509.75;4954562;28;7290;-77
2024/01/13 06:25:02;;;;;;;;;;;;;;;6.88;55.50;101503.63;4951530;28;6957;-75
2024/01/13 06:27:27;;;;;;;;;;;;;;;6.89;55.67;101513.06;4962584;28;6799;-75
2024/01/13 06:29:54;;;;;;;;;;;;;;;6.87;55.86;101512.06;4941557;28;7179;-75
2024/01/13 06:32:19;;;;;;;;;;;;;;;6.87;55.81;101512.06;4953253;28;7986;-75
2024/01/13 06:34:45;;;;;;;;;;;;;;;6.86;55.05;101505.19;4950685;28;6776;-75
2024/01/13 06:37:11;;;;;;;;;;;;;;;6.88;54.96;101503.63;4956853;28;6856;-75
2024/01/13 06:39:37;;;;;;;;;;;;;;;6.89;54.61;101506.28;4961234;28;8499;-74
2024/01/13 06:42:06;;;;;;;;;;;;;;;6.86;55.61;101500.09;4928573;28;7344;-75
2024/01/13 06:44:35;;;;;;;;;;;;;;;6.86;55.50;101502.63;4962703;28;7312;-75
2024/01/13 06:47:03;;;;;;;;;;;;;;;6.85;55.22;101505.91;4943986;28;7046;-74
2024/01/13 06:49:28;;;;;;;;;;;;;;;6.84;54.70;101501.59;4957563;28;6812;-74
2024/01/13 06:51:54;;;;;;;;;;;;;;;6.83;54.77;101498.16;4962392;28;6859;-74
2024/01/13 06:54:19;;;;;;;;;;;;;;;6.81;55.48;101508.22;4943654;28;6788;-74
2024/01/13 06:56:45;;;;;;;;;;;;;;;6.85;55.11;101511.00;4958914;28;6964;-75
2024/01/13 06:59:11;;;;;;;;;;;;;;;6.88;54.70;101513.84;4960867;28;6876;-75
2024/01/13 07:01:37;;;;;;;;;;;;;;;6.89;55.52;101513.06;4947777;28;6941;-75
2024/01/13 07:04:02;;;;;;;;;;;;;;;6.90;55.33;101508.06;4939526;28;7159;-75
2024/01/13 07:06:28;;;;;;;;;;;;;;;6.90;55.00;101505.50;4961416;28;7015;-75
2024/01/13 07:08:56;;;;;;;;;;;;;;;6.90;54.62;101499.53;4963061;28;6784;-75
2024/01/13 07:11:22;;;;;;;;;;;;;;;6.89;55.09;101491.00;4942998;28;7076;-75
2024/01/13 07:13:47;;;;;;;;;;;;;;;6.89;54.29;101487.56;4958999;28;7262;-75
2024/01/13 07:16:13;;;;;;;;;;;;;;;6.86;54.59;101474.59;4944544;28;6937;-75
2024/01/13 07:18:38;;;;;;;;;;;;;;;6.86;54.86;101479.69;4938359;28;6959;-75
2024/01/13 07:21:08;;;;;;;;;;;;;;;6.85;54.37;101457.50;4954102;28;7289;-75
2024/01/13 07:23:34;;;;;;;;;;;;;;;6.85;55.36;101447.31;4939981;28;7018;-75
2024/01/13 07:26:01;;;;;;;;;;;;;;;6.85;54.73;101442.22;4944034;28;6999;-75
2024/01/13 07:28:27;;;;;;;;;;;;;;;6.85;54.75;101437.09;4945772;28;6995;-75
2024/01/13 07:30:52;;;;;;;;;;;;;;;6.85;54.48;101442.22;4959972;28;6952;-75
2024/01/13 07:33:18;;;;;;;;;;;;;;;6.85;54.39;101458.41;4962674;28;6780;-74
2024/01/13 07:35:44;;;;;;;;;;;;;;;6.87;55.08;101448.34;4967100;28;6944;-76
2024/01/13 07:38:09;;;;;;;;;;;;;;;6.86;54.77;101439.78;4961866;28;6932;-77
2024/01/13 07:40:35;;;;;;;;;;;;;;;6.89;54.31;101450.22;4970276;28;6788;-77
2024/01/13 07:43:01;;;;;;;;;;;;;;;6.91;54.84;101448.72;4969933;28;6959;-75
2024/01/13 07:45:27;;;;;;;;;;;;;;;6.92;54.39;101439.38;4970327;28;6938;-77
2024/01/13 07:47:53;;;;;;;;;;;;;;;6.94;54.61;101427.66;4969697;28;7088;-75
2024/01/13 07:50:18;;;;;;;;;;;;;;;6.97;54.47;101434.66;4956480;28;7256;-77
2024/01/13 07:52:44;;;;;;;;;;;;;;;6.98;54.73;101426.22;4953760;28;6828;-76
2024/01/13 07:55:10;;;;;;;;;;;;;;;6.99;54.31;101431.47;4962137;28;6848;-78
2024/01/13 07:57:36;;;;;;;;;;;;;;;7.01;54.49;101431.59;4928673;28;9028;-78
2024/01/13 08:00:03;;;;;;;;;;;;;;;7.02;54.31;101413.84;4945268;28;7344;-78
2024/01/13 08:02:28;;;;;;;;;;;;;;;7.02;54.60;101411.31;4944052;28;6969;-77
2024/01/13 08:04:54;;;;;;;;;;;;;;;7.02;54.83;101403.66;4950328;28;7244;-77
2024/01/13 08:07:22;;;;;;;;;;;;;;;7.03;54.75;101377.38;4937850;28;7027;-75
2024/01/13 08:09:48;;;;;;;;;;;;;;;7.01;53.83;101361.09;4963606;28;6800;-76
2024/01/13 08:12:14;;;;;;;;;;;;;;;7.01;54.62;101368.75;4945080;28;7020;-78
2024/01/13 08:14:39;;;;;;;;;;;;;;;7.01;54.10;101373.84;4964520;28;7272;-76
2024/01/13 08:17:06;;;;;;;;;;;;;;;7.01;54.97;101386.59;4967753;28;6936;-76
2024/01/13 08:19:32;;;;;;;;;;;;;;;7.04;54.21;101386.81;4964409;28;6852;-76
2024/01/13 08:21:58;;;;;;;;;;;;;;;7.06;54.22;101377.66;4959843;28;6776;-78
2024/01/13 08:24:23;;;;;;;;;;;;;;;7.08;54.79;101373.56;4950721;28;6864;-78
2024/01/13 08:26:49;;;;;;;;;;;;;;;7.09;53.96;101371.88;4955086;28;9229;-77
2024/01/13 08:29:15;;;;;;;;;;;;;;;7.09;54.90;101362.59;4950176;28;6957;-76
2024/01/13 08:31:40;;;;;;;;;;;;;;;7.13;54.11;101363.72;4943081;28;7003;-78
2024/01/13 08:34:09;;;;;;;;;;;;;;;7.13;54.53;101362.81;4941522;28;7874;-78
2024/01/13 08:36:35;;;;;;;;;;;;;;;7.16;54.82;101357.97;4944663;28;7026;-76
2024/01/13 08:39:00;;;;;;;;;;;;;;;7.18;53.95;101364.06;4964674;28;6966;-76
2024/01/13 08:41:26;;;;;;;;;;;;;;;7.22;54.55;101359.31;4947000;28;7313;-78
2024/01/13 08:43:52;;;;;;;;;;;;;;;7.24;54.43;101354.31;4938616;28;7031;-74
2024/01/13 08:46:17;;;;;;;;;;;;;;;7.25;53.85;101362.88;4959600;28;7141;-77
2024/01/13 08:48:43;;;;;;;;;;;;;;;7.27;54.69;101359.69;4944321;28;7281;-75
2024/01/13 08:51:08;;;;;;;;;;;;;;;7.29;54.18;101358.13;4960615;28;7182;-76
2024/01/13 08:53:34;;;;;;;;;;;;;;;7.30;54.39;101352.25;4961069;28;6779;-73
2024/01/13 08:56:00;;;;;;;;;;;;;;;7.31;54.89;101333.63;4960697;28;8344;-74
2024/01/13 08:58:26;;;;;;;;;;;;;;;7.32;54.38;101325.19;4945868;28;7028;-74
2024/01/13 09:00:54;;;;;;;;;;;;;;;7.33;54.16;101332.06;4941344;28;6939;-74
2024/01/13 09:03:21;;;;;;;;;;;;;;;7.36;54.53;101316.13;4958086;28;6812;-74
2024/01/13 09:05:47;;;;;;;;;;;;;;;7.37;53.96;101312.78;4942629;28;8621;-73
2024/01/13 09:08:13;;;;;;;;;;;;;;;7.38;53.93;101306.03;4949272;28;7249;-73
2024/01/13 09:10:39;;;;;;;;;;;;;;;7.40;53.45;101317.25;4960505;28;6880;-73
2024/01/13 09:13:05;;;;;;;;;;;;;;;7.39;54.84;101334.22;4945619;28;6986;-72
2024/01/13 09:15:31;;;;;;;;;;;;;;;7.42;54.20;101325.91;4962798;28;6896;-73
2024/01/13 09:17:57;;;;;;;;;;;;;;;7.44;54.63;101335.44;4959560;28;6783;-73
2024/01/13 09:20:24;;;;;;;;;;;;;;;7.49;54.33;101329.03;4956867;28;6991;-74
2024/01/13 09:22:49;;;;;;;;;;;;;;;7.52;53.52;101347.91;4927894;28;7240;-73
2024/01/13 09:25:15;;;;;;;;;;;;;;;7.57;53.95;101365.34;4950067;28;7230;-73
2024/01/13 09:27:41;;;;;;;;;;;;;;;7.62;54.17;101355.47;4958046;28;6792;-74
2024/01/13 09:30:07;;;;;;;;;;;;;;;7.64;53.35;101333.50;4950082;28;6981;-74
2024/01/13 09:32:33;;;;;;;;;;;;;;;7.66;53.44;101339.59;4961383;28;6968;-74
2024/01/13 09:34:58;;;;;;;;;;;;;;;7.66;53.25;101328.53;4940862;28;6966;-73
2024/01/13 09:37:24;;;;;;;;;;;;;;;7.63;53.26;101334.28;4947554;28;6936;-73
2024/01/13 09:39:51;;;;;;;;;;;;;;;7.62;52.91;101353.78;4962291;28;6804;-75
2024/01/13 09:42:30;;;;;;;;;;;;;;;7.60;53.10;101342.59;4943071;28;7468;-74
2024/01/13 09:44:55;;;;;;;;;;;;;;;7.63;53.55;101349.59;4959541;28;7158;-74
2024/01/13 09:47:22;;;;;;;;;;;;;;;7.64;54.19;101346.25;4956852;28;6852;-74
2024/01/13 09:49:50;;;;;;;;;;;;;;;7.66;53.26;101351.50;4958837;28;7027;-73
2024/01/13 09:52:16;;;;;;;;;;;;;;;7.66;52.94;101357.47;4960692;28;6808;-73
2024/01/13 09:54:49;;;;;;;;;;;;;;;7.63;53.18;101354.69;4956771;28;6876;-76
2024/01/13 09:57:16;;;;;;;;;;;;;;;7.63;53.61;101345.41;4940772;28;7188;-76
2024/01/13 09:59:42;;;;;;;;;;;;;;;7.62;53.71;101342.72;4964747;28;6999;-76
2024/01/13 10:02:15;;;;;;;;;;;;;;;7.60;53.23;101351.94;4954195;28;9502;-76
2024/01/13 10:04:43;;;;;;;;;;;;;;;7.59;53.54;101351.03;4956860;28;6805;-76
2024/01/13 10:07:10;;;;;;;;;;;;;;;7.61;52.90;101341.81;4958580;28;6788;-76
2024/01/13 10:09:38;;;;;;;;;;;;;;;7.61;53.40;101338.38;4958573;28;6970;-76
2024/01/13 10:12:06;;;;;;;;;;;;;;;7.60;53.57;101344.28;4957641;28;6991;-76
2024/01/13 10:14:36;;;;;;;;;;;;;;;7.59;53.52;101343.38;4927610;28;7253;-76
2024/01/13 10:17:03;;;;;;;;;;;;;;;7.58;53.32;101339.03;4947632;28;7261;-76
2024/01/13 10:19:30;;;;;;;;;;;;;;;7.58;53.90;101333.03;4961204;28;6972;-76
2024/01/13 10:21:55;;;;;;;;;;;;;;;7.56;53.01;101329.47;4957720;28;7388;-76
2024/01/13 10:24:21;;;;;;;;;;;;;;;7.56;54.23;101332.03;4949272;28;7108;-76
2024/01/13 10:26:47;;;;;;;;;;;;;;;7.58;53.87;101323.72;4941893;28;7139;-76
2024/01/13 10:29:13;;;;;;;;;;;;;;;7.59;54.19;101329.75;4941387;28;7263;-77
2024/01/13 10:31:39;;;;;;;;;;;;;;;7.59;53.74;101324.63;4959896;28;6991;-76
2024/01/13 10:34:11;;;;;;;;;;;;;;;7.58;53.68;101322.81;4956574;28;6966;-76
2024/01/13 10:36:38;;;;;;;;;;;;;;;7.56;53.47;101317.63;4958623;28;6948;-76
2024/01/13 10:39:04;;;;;;;;;;;;;;;7.55;53.58;101315.84;4959575;28;7358;-76
2024/01/13 10:41:30;;;;;;;;;;;;;;;7.55;53.54;101304.75;4955199;28;6832;-76
2024/01/13 10:44:00;;;;;;;;;;;;;;;7.53;53.31;101309.72;4958652;28;7198;-76
2024/01/13 10:46:28;;;;;;;;;;;;;;;7.54;53.36;101308.97;4932835;28;7016;-76
2024/01/13 10:49:02;;;;;;;;;;;;;;;7.52;53.60;101305.41;4961895;28;6807;-76
2024/01/13 10:51:42;;;;;;;;;;;;;;;7.53;53.35;101294.41;4928706;28;7016;-76
2024/01/13 10:54:09;;;;;;;;;;;;;;;7.55;54.14;101292.00;4951832;28;7076;-76
2024/01/13 10:56:36;;;;;;;;;;;;;;;7.53;54.02;101289.31;4960930;28;7043;-76
2024/01/13 10:59:02;;;;;;;;;;;;;;;7.52;54.24;101287.53;4948031;28;6788;-76
2024/01/13 11:01:28;;;;;;;;;;;;;;;7.50;53.66;101284.91;4924109;28;7485;-76
2024/01/13 11:03:56;;;;;;;;;;;;;;;7.52;53.57;101287.53;4953681;28;7245;-76
2024/01/13 11:06:22;;;;;;;;;;;;;;;7.51;53.81;101280.66;4942258;28;6991;-75
2024/01/13 11:08:48;;;;;;;;;;;;;;;7.54;53.16;101283.47;4955360;28;7626;-75
2024/01/13 11:11:28;;;;;;;;;;;;;;;7.55;53.41;101271.59;4958936;28;6876;-76
2024/01/13 11:14:13;;;;;;;;;;;;;;;7.57;54.45;101255.63;4961257;28;6828;-75
2024/01/13 11:16:44;;;;;;;;;;;;;;;7.56;53.80;101253.84;4961754;28;7142;-76
2024/01/13 11:19:11;;;;;;;;;;;;;;;7.55;53.53;101249.53;4959840;28;8092;-76
2024/01/13 11:21:38;;;;;;;;;;;;;;;7.56;54.07;101258.06;4957322;28;7188;-76
2024/01/13 11:24:10;;;;;;;;;;;;;;;7.56;54.31;101253.84;4949090;28;7178;-76
2024/01/13 11:26:40;;;;;;;;;;;;;;;7.56;54.04;101256.41;4943543;28;6980;-75
2024/01/13 11:29:21;;;;;;;;;;;;;;;7.55;53.86;101240.97;4952235;28;7634;-76
2024/01/13 11:31:53;;;;;;;;;;;;;;;7.54;53.91;101240.09;4954139;28;7388;-76
2024/01/13 11:34:19;;;;;;;;;;;;;;;7.54;53.85;101237.56;4960732;28;6986;-76
2024/01/13 11:36:50;;;;;;;;;;;;;;;7.53;53.75;101232.31;4956246;28;6780;-76
2024/01/13 11:39:20;;;;;;;;;;;;;;;7.55;53.54;101231.66;4943965;28;6804;-76
2024/01/13 11:41:48;;;;;;;;;;;;;;;7.57;54.42;101234.31;4959617;28;6989;-75
2024/01/13 11:44:24;;;;;;;;;;;;;;;7.59;54.17;101227.69;4950830;28;7019;-75
2024/01/13 11:47:12;;;;;;;;;;;;;;;7.59;53.54;101227.69;4942893;28;7156;-76
2024/01/13 11:49:39;;;;;;;;;;;;;;;7.60;53.61;101224.34;4958569;28;7174;-76
2024/01/13 11:52:06;;;;;;;;;;;;;;;7.61;53.75;101227.00;4954654;28;7398;-76
2024/01/13 11:54:34;;;;;;;;;;;;;;;7.63;54.27;101217.81;4962242;28;6792;-75
2024/01/13 11:57:09;;;;;;;;;;;;;;;7.66;53.60;101223.91;4932236;28;6979;-76
2024/01/13 11:59:34;;;;;;;;;;;;;;;7.64;53.85;101219.59;4944178;28;6976;-76
2024/01/13 12:02:01;;;;;;;;;;;;;;;7.63;53.32;101215.25;4942519;28;6951;-76
2024/01/13 12:04:29;;;;;;;;;;;;;;;7.63;53.01;101209.25;4943469;28;7498;-75
2024/01/13 12:06:59;;;;;;;;;;;;;;;7.59;53.70;101208.16;4957794;28;6980;-76
2024/01/13 12:09:28;;;;;;;;;;;;;;;7.57;53.51;101209.69;4963573;28;6864;-76
2024/01/13 12:11:59;;;;;;;;;;;;;;;7.53;54.59;101207.69;4948319;28;6982;-76
2024/01/13 12:14:30;;;;;;;;;;;;;;;7.55;54.68;101210.34;4963182;28;6784;-75
2024/01/13 12:16:59;;;;;;;;;;;;;;;7.55;53.61;101208.72;4933080;28;6843;-73
2024/01/13 12:19:36;;;;;;;;;;;;;;;7.56;54.20;101212.13;4963654;28;7316;-73
2024/01/13 12:22:04;;;;;;;;;;;;;;;7.53;53.79;101202.59;4969533;28;6886;-74
2024/01/13 12:24:32;;;;;;;;;;;;;;;7.56;53.76;101207.03;4966942;28;6967;-73
2024/01/13 12:26:58;;;;;;;;;;;;;;;7.57;54.64;101209.69;4964290;28;7392;-74
2024/01/13 12:29:29;;;;;;;;;;;;;;;7.58;54.09;101200.38;4963803;28;7412;-74
2024/01/13 12:31:56;;;;;;;;;;;;;;;7.57;53.49;101196.94;4959671;28;6975;-74
2024/01/13 12:34:22;;;;;;;;;;;;;;;7.56;54.34;101190.06;4961442;28;6825;-74
2024/01/13 12:36:49;;;;;;;;;;;;;;;7.55;53.86;101180.66;4959789;28;6800;-75
2024/01/13 12:39:15;;;;;;;;;;;;;;;7.56;54.53;101179.88;4952368;28;6944;-73
2024/01/13 12:41:41;;;;;;;;;;;;;;;7.57;54.56;101173.09;4960504;28;6952;-75
2024/01/13 12:44:07;;;;;;;;;;;;;;;7.56;54.18;101171.31;4958609;28;6987;-73
2024/01/13 12:46:36;;;;;;;;;;;;;;;7.55;53.47;101167.00;4941087;28;6969;-74
2024/01/13 12:49:16;;;;;;;;;;;;;;;7.53;53.61;101155.78;4960751;28;7243;-75
2024/01/13 12:51:44;;;;;;;;;;;;;;;7.50;53.58;101164.09;4946355;28;6808;-72
2024/01/13 12:54:12;;;;;;;;;;;;;;;7.48;54.49;101147.81;4947436;28;6784;-73